Cincinnati, OH (45201)

6:15 PM EST on February 20, 2018 (GMT -0500)
Norwood | | Change Station
Active Advisory: Flood Warning

Elev 620 ft 39.15 °N, 84.45 °W | Updated 31 seconds ago

Clear
Clear
74.8 °F
Feels Like 77 °F
N
1.0
Wind Variable Wind from West

Today
High -- | Low -- °F
--% Chance of Precip.
Yesterday
High -- | Low -- °F
Precip. -- in
Pressure 30.11 in
Visibility 10.0 miles
Clouds Few 6500 ft
Heat Index 77 °F
Dew Point 57 °F
Humidity 54%
Rainfall 0.00 in
Snow Depth Not available.
7:22 AM 6:20 PM
Waxing Crescent, 25% visible
METAR KLUK 202253Z 21015KT 10SM FEW065 24/12 A3012 RMK AO2 PK WND 20031/2211 SLP196 T02390122
Pressure 30.11 in
Visibility 10.0 miles
Clouds Few 6500 ft
Heat Index 77 °F
Dew Point 57 °F
Humidity 54%
Rainfall 0.00 in
Snow Depth Not available.
7:22 AM 6:20 PM
Waxing Crescent, 25% visible
METAR KLUK 202253Z 21015KT 10SM FEW065 24/12 A3012 RMK AO2 PK WND 20031/2211 SLP196 T02390122

Get Your Daily Forecast Email!

Thanks for signing up!

Be on the lookout for a verification email in your inbox.

You'll start receiving severe weather alerts in your inbox..

×

10-Day Weather Forecast

Almanac

Astronomy

Feb. 20, 2018 Rise Set
Actual Time
Civil Twilight
Nautical Twilight
Astronomical Twilight
Moon
Length of Visible Light
Length of Day
Tomorrow will be .
, % of the Moon is Illuminated

Today's Extremes

State Highs State Lows

Community

WunderPhotos

Category 6

Welcome to Category 6. This is the collective home for Weather Underground's featured writeups by Dr. Jeff Masters (right), Bob Henson (left), Chris Burt, and other regular contributors.

Nearby

Air Quality

  Air Quality AQ Index Pollutant
Not available.

Snow Depth

Station Depth Elevation

Earthquake Activity

City Distance Mag. Time & Date
Minimum magnitude displayed is 2.5.

Coastal Water Temperatures

Place Temperature

Stations

Nearby Weather Stations

Station Location Temp. Windchill Dew Point Humidity Wind Precip. Elev Updated Type
                   

Watches & Warnings

Flood Warning
Issued: 10:40 AM EST Feb. 20, 2018 – National Weather Service

The Flood Warning continues for
the Ohio River at Cincinnati
* until Friday evening.
* At 10 am the stage was 55.2 feet.
* Flood stage is 52 feet.
* Minor flooding is occurring and minor flooding is forecast.
* The river will continue rising to near 55.5 feet by this evening. The
river will fall below flood stage early Friday afternoon.
* At stages near 55.5 feet, flooding affects much of northern Kentucky,
southwest Ohio and southeast Indiana, including backwater flooding
along creeks emptying into the Ohio River. Low-lying roads near the
river flood, with much of Anderson township near the river affected.
Flooding occurs along sections of Route 52 in Hamilton and Clermont
counties. Low-lying roads in Bromley and Ludlow also flood, as well
as stretches of Route 8 in Kentucky, and old State Route 56 near
Aurora, Indiana.



Lat... Lon 3890 8418 3885 8429 3903 8449 3903 8494
      3916 8490 3914 8437